Time;durP1;ratioP1;P1;durP2;ratioP2;P2;SDS_P1;SDS_P2;PMS_P1;PMS_P2;Temp;Humidity;BMP_temperature;BMP_pressure;BME280_temperature;BME280_humidity;BME280_pressure;Samples;Min_cycle;Max_cycle;Signal;HPM_P1;HPM_P2
2023/09/20 00:01:23;;;;;;;1.70;1.10;;;17.90;97.70;;;;;;5052265;28;20533;-68
2023/09/20 00:03:49;;;;;;;2.78;1.40;;;17.90;97.70;;;;;;5039628;28;20030;-68
2023/09/20 00:06:17;;;;;;;2.95;1.20;;;17.90;97.90;;;;;;5032043;28;20312;-68
2023/09/20 00:08:43;;;;;;;2.53;1.20;;;17.90;97.80;;;;;;5032172;28;20075;-68
2023/09/20 00:11:15;;;;;;;2.42;1.10;;;17.80;97.90;;;;;;5014113;28;20029;-68
2023/09/20 00:13:44;;;;;;;1.25;0.80;;;17.80;98.10;;;;;;5032455;28;20029;-68
2023/09/20 00:16:10;;;;;;;2.80;1.38;;;17.80;98.00;;;;;;5031524;28;20061;-68
2023/09/20 00:18:36;;;;;;;2.55;1.35;;;17.80;98.10;;;;;;5032065;28;20119;-69
2023/09/20 00:21:02;;;;;;;1.90;1.30;;;17.80;98.30;;;;;;5032521;28;20512;-69
2023/09/20 00:23:31;;;;;;;3.47;1.20;;;17.70;98.40;;;;;;5038202;28;20021;-68
2023/09/20 00:25:57;;;;;;;3.42;1.20;;;17.70;98.50;;;;;;5035256;28;20025;-69
2023/09/20 00:28:23;;;;;;;1.52;1.00;;;17.70;98.50;;;;;;5035423;28;20116;-69
2023/09/20 00:30:48;;;;;;;3.55;2.03;;;17.70;98.70;;;;;;5035237;28;20104;-69
2023/09/20 00:33:15;;;;;;;2.22;1.00;;;17.80;98.60;;;;;;5033517;28;20438;-68
2023/09/20 00:35:40;;;;;;;2.47;1.05;;;17.90;98.40;;;;;;5037458;28;20080;-68
2023/09/20 00:38:07;;;;;;;2.47;1.20;;;17.90;98.20;;;;;;5035002;28;20429;-69
2023/09/20 00:40:33;;;;;;;3.05;1.30;;;17.90;97.90;;;;;;5035371;28;20045;-69
2023/09/20 00:42:59;;;;;;;2.38;1.23;;;17.90;97.90;;;;;;5034961;28;20052;-70
2023/09/20 00:45:25;;;;;;;3.92;0.93;;;17.90;98.00;;;;;;5035126;28;20455;-69
2023/09/20 00:47:56;;;;;;;1.10;0.95;;;17.90;97.90;;;;;;5035038;28;20025;-68
2023/09/20 00:50:26;;;;;;;1.38;0.82;;;17.90;98.10;;;;;;5035218;28;20029;-69
2023/09/20 00:52:54;;;;;;;2.10;1.00;;;17.80;98.00;;;;;;5017451;28;20390;-69
2023/09/20 00:55:24;;;;;;;4.00;1.02;;;17.90;97.80;;;;;;5035213;28;20372;-69
2023/09/20 00:57:53;;;;;;;4.57;1.35;;;17.90;97.80;;;;;;5034853;28;20049;-69
2023/09/20 01:00:21;;;;;;;2.20;1.40;;;17.80;97.80;;;;;;5035009;28;20065;-69
2023/09/20 01:02:52;;;;;;;5.95;1.35;;;17.80;97.80;;;;;;5034958;28;20529;-69
2023/09/20 01:05:36;;;;;;;3.15;1.05;;;17.70;98.10;;;;;;5034702;28;20079;-68
2023/09/20 01:08:03;;;;;;;3.05;1.05;;;17.70;98.10;;;;;;5034574;28;20033;-69
2023/09/20 01:10:31;;;;;;;1.55;0.98;;;17.80;98.20;;;;;;5034952;28;20029;-68
2023/09/20 01:12:58;;;;;;;2.17;1.00;;;17.80;98.20;;;;;;5034499;28;20025;-69
2023/09/20 01:15:26;;;;;;;2.47;1.02;;;17.80;98.00;;;;;;5034447;28;20021;-68
2023/09/20 01:17:55;;;;;;;1.55;1.27;;;17.80;97.90;;;;;;5034508;28;20509;-68
2023/09/20 01:20:23;;;;;;;1.65;1.15;;;17.80;98.00;;;;;;5034377;28;20034;-68
2023/09/20 01:22:54;;;;;;;1.50;1.10;;;17.80;98.10;;;;;;5034646;28;20344;-68
2023/09/20 01:25:25;;;;;;;1.77;1.25;;;17.80;98.00;;;;;;5034298;28;20030;-68
2023/09/20 01:27:55;;;;;;;3.38;1.20;;;17.80;97.90;;;;;;5034613;28;20040;-68
2023/09/20 01:30:21;;;;;;;1.30;1.10;;;17.80;98.10;;;;;;5034511;28;20026;-68
2023/09/20 01:32:47;;;;;;;1.60;1.00;;;17.80;98.20;;;;;;5033743;28;20025;-67
2023/09/20 01:35:16;;;;;;;1.65;1.00;;;17.80;98.20;;;;;;5033960;28;20478;-67
2023/09/20 01:37:42;;;;;;;2.15;1.38;;;17.80;98.00;;;;;;5034335;28;20033;-69
2023/09/20 01:40:26;;;;;;;3.33;1.48;;;17.80;98.10;;;;;;5033896;28;20056;-69
2023/09/20 01:42:58;;;;;;;3.53;1.08;;;17.80;98.20;;;;;;5034255;28;20033;-69
2023/09/20 01:45:24;;;;;;;4.78;1.75;;;17.80;98.30;;;;;;5034219;28;20104;-69
2023/09/20 01:47:52;;;;;;;2.03;1.13;;;17.80;98.30;;;;;;5034125;28;20105;-69
2023/09/20 01:50:23;;;;;;;4.32;1.02;;;17.80;98.20;;;;;;5033734;28;20053;-69
2023/09/20 01:53:10;;;;;;;4.30;1.35;;;17.70;98.50;;;;;;5033276;28;20040;-69
2023/09/20 01:55:37;;;;;;;2.85;1.15;;;17.70;98.80;;;;;;5034107;28;20087;-69
2023/09/20 01:58:06;;;;;;;3.63;1.00;;;17.70;98.70;;;;;;5033174;28;20053;-70
2023/09/20 02:00:36;;;;;;;3.67;1.23;;;17.60;98.80;;;;;;5033883;28;20083;-69
2023/09/20 02:03:16;;;;;;;1.50;1.00;;;17.60;99.00;;;;;;5033409;28;20025;-71
2023/09/20 02:05:44;;;;;;;1.55;0.90;;;17.60;99.10;;;;;;5033999;28;20475;-69
2023/09/20 02:08:09;;;;;;;1.17;0.93;;;17.50;99.20;;;;;;5033311;28;20080;-68
2023/09/20 02:10:39;;;;;;;1.60;1.08;;;17.40;99.70;;;;;;5039218;28;20021;-68
2023/09/20 02:13:06;;;;;;;1.67;1.10;;;17.40;99.90;;;;;;5052158;28;20028;-68
2023/09/20 02:15:35;;;;;;;2.03;1.17;;;17.40;99.90;;;;;;5051149;28;20462;-68
2023/09/20 02:18:05;;;;;;;4.15;1.23;;;17.40;99.90;;;;;;5053046;28;20046;-70
2023/09/20 02:20:36;;;;;;;3.97;1.13;;;17.40;99.90;;;;;;5053524;28;20025;-68
2023/09/20 02:23:04;;;;;;;3.00;0.93;;;17.40;99.90;;;;;;5053125;28;20481;-69
2023/09/20 02:25:29;;;;;;;1.17;1.00;;;17.40;99.90;;;;;;5053125;28;20389;-68
2023/09/20 02:28:00;;;;;;;1.48;1.25;;;17.40;99.90;;;;;;5053053;28;20033;-69
2023/09/20 02:30:34;;;;;;;3.78;1.60;;;17.40;99.90;;;;;;5035101;28;20031;-68
2023/09/20 02:33:00;;;;;;;2.65;1.38;;;17.40;99.90;;;;;;5053261;28;20378;-68
2023/09/20 02:35:30;;;;;;;1.92;1.27;;;17.40;99.90;;;;;;5053163;28;20163;-69
2023/09/20 02:37:56;;;;;;;3.53;1.10;;;17.40;99.90;;;;;;5049708;28;20033;-68
2023/09/20 02:40:26;;;;;;;2.25;1.20;;;17.40;99.90;;;;;;5052716;28;20362;-68
2023/09/20 02:42:58;;;;;;;2.23;1.27;;;17.40;99.90;;;;;;5053224;28;20115;-68
2023/09/20 02:45:25;;;;;;;2.45;1.15;;;17.40;99.90;;;;;;5034313;28;20099;-69
2023/09/20 02:47:51;;;;;;;1.40;0.98;;;17.40;99.90;;;;;;5052938;28;20033;-68
2023/09/20 02:50:23;;;;;;;2.20;1.08;;;17.30;99.90;;;;;;5052858;28;20025;-69
2023/09/20 02:52:49;;;;;;;;;;;17.30;99.90;;;;;;5053324;28;20067;-68
2023/09/20 02:55:17;;;;;;;3.22;1.17;;;17.30;99.90;;;;;;5052241;28;19951;-68
2023/09/20 02:57:46;;;;;;;2.35;1.17;;;17.30;99.90;;;;;;5052701;28;20057;-69
2023/09/20 03:00:16;;;;;;;2.70;1.15;;;17.30;99.90;;;;;;5034606;28;20049;-68
2023/09/20 03:02:44;;;;;;;4.75;1.85;;;17.30;99.90;;;;;;5052659;28;20499;-68
2023/09/20 03:05:13;;;;;;;1.05;0.95;;;17.30;99.90;;;;;;5052409;28;20413;-70
2023/09/20 03:07:41;;;;;;;2.80;1.52;;;17.30;99.90;;;;;;5053035;28;20051;-69
2023/09/20 03:10:12;;;;;;;5.68;1.60;;;17.20;99.90;;;;;;5052421;28;20017;-70
2023/09/20 03:12:39;;;;;;;3.35;1.52;;;17.20;99.90;;;;;;5052909;28;20056;-69
2023/09/20 03:15:09;;;;;;;2.80;1.38;;;17.20;99.90;;;;;;5052329;28;20033;-70
2023/09/20 03:17:36;;;;;;;2.35;1.25;;;17.20;99.90;;;;;;5052630;28;20068;-69
2023/09/20 03:20:07;;;;;;;2.53;1.20;;;17.20;99.90;;;;;;5052495;28;20062;-69
2023/09/20 03:22:36;;;;;;;2.03;1.33;;;17.10;99.90;;;;;;5052605;28;20063;-69
2023/09/20 03:25:04;;;;;;;4.82;1.75;;;17.10;99.90;;;;;;5052579;28;20159;-69
2023/09/20 03:27:30;;;;;;;3.05;1.40;;;17.10;99.90;;;;;;5052549;28;20089;-69
2023/09/20 03:29:57;;;;;;;3.08;1.40;;;17.10;99.90;;;;;;5052797;28;20029;-69
2023/09/20 03:32:22;;;;;;;2.10;1.63;;;17.10;99.90;;;;;;5052048;28;20039;-70
2023/09/20 03:34:48;;;;;;;4.30;1.80;;;17.00;99.90;;;;;;5052678;28;20104;-69
2023/09/20 03:37:14;;;;;;;4.05;1.58;;;17.10;99.90;;;;;;5051983;28;20480;-69
2023/09/20 03:39:40;;;;;;;4.75;1.73;;;17.00;99.90;;;;;;5052392;28;20091;-69
2023/09/20 03:42:11;;;;;;;2.40;1.63;;;17.00;99.90;;;;;;5052229;28;20418;-69
2023/09/20 03:44:38;;;;;;;3.42;1.70;;;17.00;99.90;;;;;;5052587;28;20032;-68
2023/09/20 03:47:05;;;;;;;3.00;1.92;;;17.00;99.90;;;;;;5052416;28;20067;-68
2023/09/20 03:49:30;;;;;;;9.00;1.75;;;17.00;99.90;;;;;;5052020;28;20044;-67
2023/09/20 03:51:58;;;;;;;5.93;2.30;;;17.00;99.90;;;;;;5051997;28;20066;-68
2023/09/20 03:54:25;;;;;;;2.35;1.73;;;17.00;99.90;;;;;;5052258;28;20025;-68
2023/09/20 03:56:51;;;;;;;2.17;1.60;;;17.00;99.90;;;;;;5050120;28;20072;-68
2023/09/20 03:59:18;;;;;;;3.33;1.55;;;17.00;99.90;;;;;;5075812;28;20074;-68
2023/09/20 04:01:43;;;;;;;2.10;1.60;;;17.00;99.90;;;;;;5076360;28;20029;-68
2023/09/20 04:04:09;;;;;;;3.92;1.70;;;17.00;99.90;;;;;;5071010;28;20047;-69
2023/09/20 04:06:35;;;;;;;2.55;1.85;;;17.00;99.90;;;;;;5058202;28;20066;-68
2023/09/20 04:09:09;;;;;;;3.60;1.55;;;17.00;99.90;;;;;;5055978;28;20074;-69
2023/09/20 04:11:37;;;;;;;3.10;1.63;;;16.90;99.90;;;;;;5056136;28;20029;-68
2023/09/20 04:14:03;;;;;;;5.80;1.70;;;16.90;99.90;;;;;;5055445;28;20486;-69
2023/09/20 04:16:28;;;;;;;3.15;1.60;;;17.00;99.90;;;;;;5055314;28;20025;-69
2023/09/20 04:18:54;;;;;;;3.85;2.03;;;16.90;99.90;;;;;;5056058;28;20055;-68
2023/09/20 04:21:21;;;;;;;4.50;2.10;;;16.90;99.90;;;;;;5055298;28;20029;-69
2023/09/20 04:23:46;;;;;;;5.38;2.60;;;16.90;99.90;;;;;;5055705;28;20029;-68
2023/09/20 04:26:12;;;;;;;4.78;2.03;;;16.90;99.90;;;;;;5055058;28;20075;-68
2023/09/20 04:28:37;;;;;;;4.55;2.50;;;16.90;99.90;;;;;;5055522;28;20381;-68
2023/09/20 04:31:04;;;;;;;5.88;2.58;;;16.90;99.90;;;;;;5071984;28;20036;-68
2023/09/20 04:33:30;;;;;;;7.40;2.90;;;16.80;99.90;;;;;;5075093;28;20090;-68
2023/09/20 04:35:58;;;;;;;10.05;3.97;;;16.80;99.90;;;;;;5075615;28;20404;-68
2023/09/20 04:38:23;;;;;;;8.40;3.80;;;16.80;99.90;;;;;;5074910;28;20043;-67
2023/09/20 04:40:49;;;;;;;7.40;3.60;;;16.80;99.90;;;;;;5074960;28;20028;-68
2023/09/20 04:43:15;;;;;;;9.82;3.00;;;16.80;99.90;;;;;;5074779;28;20032;-68
2023/09/20 04:45:40;;;;;;;6.65;2.80;;;16.80;99.90;;;;;;5075193;28;20103;-68
2023/09/20 04:48:08;;;;;;;6.03;3.05;;;16.70;99.90;;;;;;5075118;28;20138;-69
2023/09/20 04:50:34;;;;;;;4.30;2.42;;;16.70;99.90;;;;;;5074686;28;20017;-69
2023/09/20 04:53:00;;;;;;;6.35;1.85;;;16.70;99.90;;;;;;5074832;28;20036;-70
2023/09/20 04:55:27;;;;;;;5.90;2.03;;;16.70;99.90;;;;;;5074546;28;20389;-68
2023/09/20 04:57:53;;;;;;;10.65;2.08;;;16.70;99.90;;;;;;5058402;28;20053;-68
2023/09/20 05:00:26;;;;;;;6.57;2.25;;;16.70;99.90;;;;;;5054205;28;20070;-68
2023/09/20 05:02:52;;;;;;;5.75;1.83;;;16.70;99.90;;;;;;5055031;28;20444;-68
2023/09/20 05:05:17;;;;;;;6.18;2.50;;;16.70;99.90;;;;;;5054358;28;20111;-68
2023/09/20 05:07:44;;;;;;;7.45;2.20;;;16.70;99.90;;;;;;5036009;28;20124;-68
2023/09/20 05:10:10;;;;;;;9.50;2.20;;;16.70;99.90;;;;;;5054772;28;20028;-69
2023/09/20 05:12:35;;;;;;;4.90;2.38;;;16.70;99.90;;;;;;5054122;28;20029;-69
2023/09/20 05:15:01;;;;;;;6.78;2.83;;;16.70;99.90;;;;;;5054816;28;20115;-69
2023/09/20 05:17:27;;;;;;;12.18;3.70;;;16.70;99.90;;;;;;5054079;28;20044;-69
2023/09/20 05:19:53;;;;;;;4.68;2.65;;;16.70;99.90;;;;;;5054461;28;20040;-69
2023/09/20 05:22:19;;;;;;;9.43;2.40;;;16.80;99.90;;;;;;5054071;28;20029;-69
2023/09/20 05:24:44;;;;;;;8.18;2.30;;;16.70;99.90;;;;;;5054129;28;20036;-68
2023/09/20 05:27:10;;;;;;;5.45;2.47;;;16.80;99.90;;;;;;5054435;28;20033;-69
2023/09/20 05:29:36;;;;;;;7.00;2.17;;;16.80;99.90;;;;;;5054230;28;20031;-68
2023/09/20 05:32:02;;;;;;;5.57;2.53;;;16.80;99.90;;;;;;5054098;28;20055;-69
2023/09/20 05:34:28;;;;;;;8.77;2.90;;;16.80;99.90;;;;;;5053887;28;20029;-69
2023/09/20 05:36:54;;;;;;;4.85;2.38;;;16.80;99.90;;;;;;5053965;28;20040;-69
2023/09/20 05:39:19;;;;;;;4.13;2.25;;;16.80;99.90;;;;;;5053894;28;20155;-70
2023/09/20 05:41:45;;;;;;;6.88;2.88;;;16.80;99.90;;;;;;5054109;28;20025;-70
2023/09/20 05:44:11;;;;;;;6.13;2.53;;;16.80;99.90;;;;;;5054195;28;20057;-70
2023/09/20 05:46:36;;;;;;;5.05;2.75;;;16.80;99.90;;;;;;5053415;28;20039;-69
2023/09/20 05:49:02;;;;;;;3.80;1.92;;;16.80;99.90;;;;;;5054032;28;20028;-69
2023/09/20 05:51:28;;;;;;;6.85;1.90;;;16.90;99.90;;;;;;5053648;28;20460;-69
2023/09/20 05:53:54;;;;;;;4.22;2.17;;;16.90;99.90;;;;;;5035916;28;20024;-69
2023/09/20 05:56:20;;;;;;;6.65;2.80;;;16.90;99.90;;;;;;5047876;28;20041;-70
2023/09/20 05:58:46;;;;;;;5.85;2.47;;;17.00;99.90;;;;;;5036339;28;20025;-69
2023/09/20 06:01:12;;;;;;;4.72;2.28;;;17.10;99.90;;;;;;5033887;28;20040;-69
2023/09/20 06:03:39;;;;;;;6.47;2.65;;;17.10;99.90;;;;;;5033475;28;20117;-69
2023/09/20 06:06:07;;;;;;;10.45;3.00;;;17.10;99.90;;;;;;5033710;28;20115;-69
2023/09/20 06:08:35;;;;;;;7.25;2.90;;;17.20;99.90;;;;;;5032822;28;20029;-69
2023/09/20 06:11:04;;;;;;;5.50;2.90;;;17.20;99.90;;;;;;5033683;28;20079;-68
2023/09/20 06:13:31;;;;;;;8.77;3.38;;;17.30;99.90;;;;;;5032941;28;20434;-69
2023/09/20 06:15:56;;;;;;;3.28;2.47;;;17.30;99.90;;;;;;4999775;28;20030;-69
2023/09/20 06:18:22;;;;;;;5.45;2.40;;;17.30;99.90;;;;;;5033260;28;20041;-69
2023/09/20 06:20:50;;;;;;;3.67;2.17;;;17.40;99.90;;;;;;5033427;28;20048;-69
2023/09/20 06:23:18;;;;;;;2.85;2.00;;;17.50;99.90;;;;;;5033094;28;20478;-68
2023/09/20 06:25:47;;;;;;;6.30;2.10;;;17.50;99.90;;;;;;5015677;28;20030;-69
2023/09/20 06:28:14;;;;;;;9.23;2.33;;;17.60;99.90;;;;;;5033198;28;20456;-69
2023/09/20 06:30:41;;;;;;;13.18;2.50;;;17.60;99.90;;;;;;5032964;28;20370;-68
2023/09/20 06:33:08;;;;;;;11.00;3.10;;;17.70;99.90;;;;;;5033215;28;20044;-68
2023/09/20 06:35:38;;;;;;;8.43;2.83;;;17.70;99.90;;;;;;5035087;28;20369;-69
2023/09/20 06:38:04;;;;;;;8.60;2.50;;;17.80;99.90;;;;;;5033112;28;20029;-68
2023/09/20 06:40:39;;;;;;;12.15;2.63;;;17.90;99.90;;;;;;5032628;28;20037;-69
2023/09/20 06:43:09;;;;;;;8.63;2.70;;;17.90;99.90;;;;;;5033250;28;20025;-70
2023/09/20 06:45:35;;;;;;;10.30;3.22;;;18.00;99.90;;;;;;5032568;28;20030;-69
2023/09/20 06:48:02;;;;;;;13.10;5.25;;;18.10;99.90;;;;;;5032865;28;20033;-68
2023/09/20 06:50:29;;;;;;;14.63;3.08;;;18.20;99.90;;;;;;5014923;28;20056;-69
2023/09/20 06:52:54;;;;;;;11.73;3.65;;;18.30;99.90;;;;;;5033139;28;20034;-69
2023/09/20 06:55:20;;;;;;;12.43;4.10;;;18.40;99.90;;;;;;5032351;28;20033;-70
2023/09/20 06:57:47;;;;;;;12.35;3.15;;;18.50;99.90;;;;;;5032961;28;20045;-69
2023/09/20 07:00:25;;;;;;;15.15;3.60;;;18.70;99.90;;;;;;5032737;28;20050;-68
2023/09/20 07:02:55;;;;;;;9.15;3.33;;;19.00;99.90;;;;;;5015069;28;20029;-68
2023/09/20 07:05:24;;;;;;;7.55;3.63;;;19.30;99.90;;;;;;5032546;28;20040;-70
2023/09/20 07:07:50;;;;;;;6.65;3.42;;;19.60;99.50;;;;;;5032876;28;20029;-69
2023/09/20 07:10:16;;;;;;;11.98;3.78;;;20.00;98.10;;;;;;5032434;28;20108;-69
2023/09/20 07:12:43;;;;;;;7.93;3.05;;;20.40;97.00;;;;;;5032275;28;20436;-69
2023/09/20 07:15:12;;;;;;;7.93;3.22;;;20.90;96.20;;;;;;5032533;28;20101;-68
2023/09/20 07:17:40;;;;;;;10.15;3.60;;;21.40;93.50;;;;;;5032028;28;20092;-69
2023/09/20 07:20:19;;;;;;;9.32;3.67;;;22.00;91.80;;;;;;5032276;28;20397;-69
2023/09/20 07:22:49;;;;;;;11.13;3.30;;;22.70;88.50;;;;;;5032202;28;20076;-68
2023/09/20 07:25:20;;;;;;;8.68;3.28;;;23.70;84.40;;;;;;5032194;28;20378;-68
2023/09/20 07:27:48;;;;;;;7.18;3.05;;;24.90;78.60;;;;;;5032241;28;20396;-70
2023/09/20 07:30:17;;;;;;;5.20;2.17;;;26.00;73.90;;;;;;5033690;28;20122;-69
2023/09/20 07:32:44;;;;;;;13.05;2.60;;;27.20;68.50;;;;;;5036121;28;20272;-69
2023/09/20 07:35:26;;;;;;;10.15;2.78;;;28.20;64.20;;;;;;5036684;28;20569;-69
2023/09/20 07:37:58;;;;;;;6.60;2.40;;;29.00;61.10;;;;;;5036403;28;20065;-69
2023/09/20 07:40:31;;;;;;;7.03;1.80;;;29.80;58.50;;;;;;5036145;28;20441;-70
2023/09/20 07:43:04;;;;;;;2.88;1.92;;;30.20;56.60;;;;;;5036494;28;20061;-69
2023/09/20 07:45:38;;;;;;;4.60;1.80;;;31.30;54.00;;;;;;5036051;28;20084;-71
2023/09/20 07:48:12;;;;;;;3.67;1.77;;;32.00;52.00;;;;;;5018847;28;20040;-70
2023/09/20 07:50:41;;;;;;;2.22;1.30;;;32.60;49.80;;;;;;5036054;28;20112;-69
2023/09/20 07:53:10;;;;;;;2.83;1.52;;;33.10;47.50;;;;;;5038881;28;20473;-71
2023/09/20 07:55:45;;;;;;;5.40;1.73;;;33.60;45.90;;;;;;5035912;28;20075;-70
2023/09/20 07:58:15;;;;;;;4.75;1.58;;;33.80;46.00;;;;;;5036309;28;20059;-70
2023/09/20 08:00:42;;;;;;;1.25;1.00;;;34.20;44.40;;;;;;5035880;28;20116;-69
2023/09/20 08:03:09;;;;;;;1.20;1.02;;;34.60;42.60;;;;;;5036129;28;20100;-70
2023/09/20 08:05:34;;;;;;;2.55;1.10;;;34.80;41.40;;;;;;5036190;28;20032;-71
2023/09/20 08:08:00;;;;;;;1.38;1.02;;;35.00;40.10;;;;;;5054866;28;20025;-69
2023/09/20 08:10:26;;;;;;;1.02;0.93;;;35.20;39.10;;;;;;5055559;28;20029;-69
2023/09/20 08:12:53;;;;;;;1.52;1.00;;;35.20;39.90;;;;;;5055987;28;20025;-70
2023/09/20 08:15:20;;;;;;;4.88;0.93;;;35.10;39.30;;;;;;5055762;28;20056;-71
2023/09/20 08:20:29;;;;;;;2.08;1.02;;;33.80;40.30;;;;;;5055333;28;20044;-68
2023/09/20 09:01:37;;;;;;;1.25;1.02;;;28.80;49.10;;;;;;5034489;28;20595;-69
2023/09/20 09:04:07;;;;;;;1.70;0.98;;;28.80;49.70;;;;;;5034842;28;20095;-69
2023/09/20 09:06:33;;;;;;;;;;;28.80;50.40;;;;;;5034600;28;20036;-69
2023/09/20 09:09:00;;;;;;;1.35;1.08;;;28.70;47.10;;;;;;5034998;28;20003;-69
2023/09/20 09:11:26;;;;;;;4.35;1.20;;;28.60;46.80;;;;;;5034846;28;20025;-70
2023/09/20 09:13:52;;;;;;;2.55;1.10;;;28.40;47.40;;;;;;5034452;28;20033;-69
2023/09/20 09:16:22;;;;;;;3.78;1.20;;;28.30;48.70;;;;;;5034733;28;20116;-69
2023/09/20 09:18:48;;;;;;;1.80;0.90;;;28.20;48.50;;;;;;5033935;28;20367;-70
2023/09/20 09:21:17;;;;;;;1.90;1.02;;;28.10;48.50;;;;;;5034478;28;20461;-69
2023/09/20 09:23:45;;;;;;;1.90;0.93;;;28.10;49.40;;;;;;5034217;28;20072;-69
2023/09/20 09:26:13;;;;;;;1.38;1.20;;;28.10;49.10;;;;;;5034542;28;20065;-69
2023/09/20 09:28:49;;;;;;;2.53;1.23;;;28.00;49.50;;;;;;5034219;28;20030;-69
2023/09/20 09:31:15;;;;;;;1.42;1.10;;;28.10;49.60;;;;;;5034328;28;20029;-68
2023/09/20 09:33:41;;;;;;;1.60;1.40;;;28.10;50.10;;;;;;5033978;28;20374;-70
2023/09/20 09:36:07;;;;;;;2.55;1.50;;;28.10;50.20;;;;;;5034411;28;20116;-69
2023/09/20 09:38:34;;;;;;;5.10;1.25;;;28.00;50.60;;;;;;5016107;28;20152;-70
2023/09/20 09:41:02;;;;;;;3.05;1.40;;;27.90;51.60;;;;;;5034210;28;20037;-68
2023/09/20 09:43:32;;;;;;;5.10;1.10;;;28.00;52.80;;;;;;5036870;28;20025;-68
2023/09/20 09:46:05;;;;;;;1.67;1.10;;;28.10;51.90;;;;;;5034051;28;20032;-69
2023/09/20 09:48:32;;;;;;;1.70;1.20;;;28.20;51.20;;;;;;5034174;28;20037;-70
2023/09/20 09:50:59;;;;;;;2.42;1.15;;;28.20;50.50;;;;;;5033910;28;20030;-69
2023/09/20 09:53:25;;;;;;;3.38;1.50;;;28.10;50.30;;;;;;5033630;28;20032;-69
2023/09/20 09:55:52;;;;;;;3.47;1.33;;;28.00;51.60;;;;;;5033582;28;20370;-69
2023/09/20 09:58:18;;;;;;;2.75;1.20;;;27.90;51.20;;;;;;5033891;28;20053;-69
2023/09/20 10:00:49;;;;;;;3.50;1.50;;;27.80;51.40;;;;;;5033039;28;20470;-70
2023/09/20 10:03:32;;;;;;;4.32;1.40;;;27.70;51.40;;;;;;5034897;28;20028;-69
2023/09/20 10:06:22;;;;;;;2.97;1.15;;;27.60;51.80;;;;;;5032866;28;20033;-69
2023/09/20 10:08:56;;;;;;;1.80;1.17;;;27.50;52.40;;;;;;5021342;28;20041;-68
2023/09/20 10:11:24;;;;;;;1.25;0.95;;;27.70;53.10;;;;;;5033526;28;20465;-68
2023/09/20 10:13:51;;;;;;;3.47;1.23;;;27.90;52.00;;;;;;5032988;28;20076;-69
2023/09/20 10:16:17;;;;;;;4.15;1.10;;;27.90;51.80;;;;;;5033712;28;20071;-70
2023/09/20 10:18:52;;;;;;;4.05;1.20;;;27.90;51.90;;;;;;5032987;28;20037;-69
2023/09/20 10:21:23;;;;;;;1.92;1.38;;;28.10;51.30;;;;;;5033558;28;20022;-69
2023/09/20 10:24:01;;;;;;;4.15;1.10;;;28.10;50.90;;;;;;5033134;28;20064;-69
2023/09/20 10:26:29;;;;;;;2.95;1.35;;;28.10;51.00;;;;;;5033363;28;20021;-69
2023/09/20 10:29:17;;;;;;;2.08;1.20;;;28.20;51.10;;;;;;5032813;28;20029;-70
2023/09/20 10:31:46;;;;;;;2.58;1.23;;;28.20;51.60;;;;;;5032377;28;20417;-68
2023/09/20 10:34:12;;;;;;;2.45;1.27;;;28.20;52.40;;;;;;5032743;28;20455;-70
2023/09/20 10:36:52;;;;;;;6.32;1.20;;;28.30;52.20;;;;;;5032330;28;20091;-69
2023/09/20 10:39:18;;;;;;;2.50;1.13;;;28.30;51.60;;;;;;5051216;28;20044;-69
2023/09/20 10:41:48;;;;;;;1.27;1.05;;;28.10;51.20;;;;;;5052624;28;20265;-69
2023/09/20 10:44:30;;;;;;;3.60;1.20;;;28.10;51.60;;;;;;5052815;28;20029;-69
2023/09/20 10:47:03;;;;;;;2.67;1.02;;;28.10;51.70;;;;;;5052385;28;20239;-69
2023/09/20 10:49:40;;;;;;;3.75;1.20;;;28.30;52.00;;;;;;5052694;28;20025;-70
2023/09/20 10:52:06;;;;;;;5.03;1.83;;;28.40;52.40;;;;;;5052810;28;20032;-69
2023/09/20 10:54:36;;;;;;;1.83;1.23;;;28.50;52.00;;;;;;5052257;28;20024;-68
2023/09/20 10:57:05;;;;;;;1.42;1.20;;;28.50;51.70;;;;;;5052254;28;20065;-68
2023/09/20 10:59:32;;;;;;;3.92;1.42;;;28.50;52.10;;;;;;5052715;28;20029;-70
2023/09/20 11:02:16;;;;;;;3.28;1.83;;;28.60;51.80;;;;;;5052252;28;20055;-69
2023/09/20 11:04:42;;;;;;;2.28;1.02;;;28.60;52.10;;;;;;5051747;28;20446;-69
2023/09/20 11:07:09;;;;;;;2.25;1.10;;;28.70;52.90;;;;;;5052605;28;20052;-69
2023/09/20 11:09:35;;;;;;;4.05;1.20;;;28.50;52.50;;;;;;5052693;28;20017;-69
2023/09/20 11:12:08;;;;;;;2.63;1.33;;;28.60;53.30;;;;;;5052294;28;20527;-69
2023/09/20 11:14:40;;;;;;;3.92;1.20;;;28.50;53.00;;;;;;5052674;28;20457;-69
2023/09/20 11:17:07;;;;;;;4.32;1.40;;;28.60;53.50;;;;;;5052488;28;20040;-69
2023/09/20 11:19:33;;;;;;;3.30;1.55;;;28.60;54.00;;;;;;5052573;28;20032;-69
2023/09/20 11:21:59;;;;;;;1.80;1.30;;;28.60;53.90;;;;;;5052210;28;20390;-69
2023/09/20 11:24:26;;;;;;;3.00;1.35;;;28.50;54.50;;;;;;5052810;28;20481;-69
2023/09/20 11:26:53;;;;;;;2.78;1.00;;;28.60;55.10;;;;;;5052132;28;20458;-68
2023/09/20 11:29:19;;;;;;;3.28;1.40;;;28.70;54.20;;;;;;5052489;28;20036;-70
2023/09/20 11:31:45;;;;;;;5.68;1.30;;;28.70;55.00;;;;;;5052101;28;20021;-68
2023/09/20 11:34:12;;;;;;;1.67;1.40;;;28.70;55.00;;;;;;5052334;28;20029;-70
2023/09/20 11:36:44;;;;;;;6.05;1.80;;;28.70;55.20;;;;;;5052099;28;20381;-69
2023/09/20 11:39:14;;;;;;;2.95;1.70;;;28.70;55.90;;;;;;5052546;28;20041;-70
2023/09/20 11:41:45;;;;;;;5.32;1.58;;;28.70;56.00;;;;;;5052298;28;20470;-69
2023/09/20 11:44:12;;;;;;;8.00;1.60;;;28.70;56.30;;;;;;5035833;28;20390;-68
2023/09/20 11:46:38;;;;;;;4.20;1.58;;;28.70;56.50;;;;;;5032512;28;20029;-69
2023/09/20 11:49:05;;;;;;;2.20;1.38;;;28.70;56.00;;;;;;5032096;28;20036;-70
2023/09/20 11:51:40;;;;;;;2.15;1.40;;;28.60;56.40;;;;;;5032595;28;20025;-70
2023/09/20 11:54:06;;;;;;;3.40;1.58;;;28.60;56.60;;;;;;5032100;28;20417;-70
2023/09/20 11:56:34;;;;;;;2.60;1.40;;;28.60;57.20;;;;;;5032454;28;20049;-70
2023/09/20 11:59:02;;;;;;;3.13;1.25;;;28.70;57.40;;;;;;5032058;28;20065;-70
2023/09/20 12:01:29;;;;;;;7.38;1.90;;;28.70;57.40;;;;;;5032147;28;20037;-70
2023/09/20 12:03:56;;;;;;;4.20;1.45;;;28.60;57.30;;;;;;5031773;28;20033;-69
2023/09/20 12:06:21;;;;;;;3.35;1.77;;;28.50;57.40;;;;;;5032288;28;20107;-70
2023/09/20 12:08:48;;;;;;;4.72;1.65;;;28.40;57.00;;;;;;5031802;28;20076;-69
2023/09/20 12:11:14;;;;;;;2.70;1.42;;;28.10;57.50;;;;;;5032268;28;20545;-69
2023/09/20 12:13:42;;;;;;;4.13;1.50;;;28.00;58.10;;;;;;5033409;28;20061;-69
2023/09/20 12:16:08;;;;;;;3.67;1.70;;;28.00;58.60;;;;;;5032924;28;20026;-70
2023/09/20 12:18:36;;;;;;;7.55;1.60;;;27.90;58.70;;;;;;5035743;28;20038;-70
2023/09/20 12:21:03;;;;;;;4.22;1.80;;;27.80;58.80;;;;;;5035357;28;20029;-69
2023/09/20 12:23:29;;;;;;;4.40;1.35;;;27.70;59.60;;;;;;5035734;28;20079;-69
2023/09/20 12:25:55;;;;;;;4.28;1.77;;;27.60;59.90;;;;;;5035354;28;20075;-68
2023/09/20 12:28:23;;;;;;;2.17;1.80;;;27.60;60.30;;;;;;5035532;28;20029;-70
2023/09/20 12:30:49;;;;;;;5.90;1.98;;;27.50;60.30;;;;;;5035410;28;20026;-70
2023/09/20 12:33:14;;;;;;;4.07;1.70;;;27.40;61.10;;;;;;5037525;28;20406;-69
2023/09/20 12:35:40;;;;;;;3.08;1.60;;;27.40;61.40;;;;;;5035513;28;20029;-69
2023/09/20 12:38:07;;;;;;;4.55;1.60;;;27.40;61.40;;;;;;5034985;28;20038;-70
2023/09/20 12:40:32;;;;;;;5.50;1.70;;;27.30;61.30;;;;;;5035571;28;20033;-70
2023/09/20 12:43:02;;;;;;;4.22;1.42;;;27.20;61.50;;;;;;5035216;28;20027;-69
2023/09/20 12:45:28;;;;;;;2.97;1.67;;;27.10;61.30;;;;;;5035597;28;20029;-70
2023/09/20 12:47:55;;;;;;;4.30;1.73;;;27.00;61.20;;;;;;5034499;28;20049;-69
2023/09/20 12:50:21;;;;;;;2.33;1.58;;;26.90;61.50;;;;;;5035340;28;20029;-71
2023/09/20 12:52:48;;;;;;;4.82;1.50;;;26.90;62.00;;;;;;5034528;28;20443;-70
2023/09/20 12:55:14;;;;;;;3.78;1.58;;;26.80;61.70;;;;;;5034985;28;20029;-70
2023/09/20 12:57:40;;;;;;;4.53;1.58;;;26.70;62.10;;;;;;5034734;28;20049;-70
2023/09/20 13:00:09;;;;;;;2.88;1.50;;;26.60;62.30;;;;;;5034630;28;20048;-69
2023/09/20 13:02:34;;;;;;;4.07;1.50;;;26.60;62.50;;;;;;5034849;28;20025;-69
2023/09/20 13:05:01;;;;;;;2.70;1.75;;;26.50;62.90;;;;;;5034572;28;20053;-69
2023/09/20 13:07:27;;;;;;;3.28;1.85;;;26.50;62.90;;;;;;5035093;28;20025;-69
2023/09/20 13:09:54;;;;;;;4.72;1.48;;;26.50;62.80;;;;;;5034442;28;20069;-70
2023/09/20 13:12:20;;;;;;;4.65;1.80;;;26.50;62.30;;;;;;5034525;28;20096;-69
2023/09/20 13:14:46;;;;;;;3.00;1.30;;;26.50;62.10;;;;;;5034806;28;20113;-70
2023/09/20 13:17:12;;;;;;;3.47;1.60;;;26.50;62.00;;;;;;5034749;28;20095;-69
2023/09/20 13:19:38;;;;;;;5.22;1.38;;;26.50;61.30;;;;;;5034674;28;20067;-69
2023/09/20 13:22:05;;;;;;;4.03;1.55;;;26.50;61.60;;;;;;5034213;28;20029;-69
2023/09/20 13:24:34;;;;;;;2.50;1.38;;;26.50;61.60;;;;;;5034685;28;20061;-69
2023/09/20 13:27:00;;;;;;;2.97;1.73;;;26.50;61.60;;;;;;5034208;28;20036;-70
2023/09/20 13:29:27;;;;;;;5.28;1.88;;;26.50;60.70;;;;;;5033840;28;20030;-69
2023/09/20 13:31:54;;;;;;;3.03;1.30;;;26.50;59.90;;;;;;5033717;28;20395;-70